Time;durP1;ratioP1;P1;durP2;ratioP2;P2;SDS_P1;SDS_P2;PMS_P1;PMS_P2;Temp;Humidity;BMP_temperature;BMP_pressure;BME280_temperature;BME280_humidity;BME280_pressure;Samples;Min_cycle;Max_cycle;Signal;HPM_P1;HPM_P2
2022/10/07 00:00:45;;;;;;;9.63;4.83;;;;;;;;;;5030510;28;20587;-72
2022/10/07 00:03:10;;;;;;;9.20;4.03;;;;;;;;;;5021665;28;20384;-72
2022/10/07 00:05:35;;;;;;;13.33;4.17;;;;;;;;;;5010066;28;20178;-72
2022/10/07 00:08:00;;;;;;;10.43;4.20;;;;;;;;;;5025914;28;20182;-72
2022/10/07 00:10:26;;;;;;;9.83;3.80;;;;;;;;;;5023423;28;20228;-72
2022/10/07 00:12:51;;;;;;;9.50;4.30;;;;;;;;;;5024876;28;20202;-70
2022/10/07 00:15:17;;;;;;;9.80;4.33;;;;;;;;;;5028546;28;20184;-73
2022/10/07 00:17:42;;;;;;;10.57;4.27;;;;;;;;;;5029811;28;20174;-72
2022/10/07 00:20:08;;;;;;;10.73;3.60;;;;;;;;;;5022039;28;20269;-70
2022/10/07 00:22:33;;;;;;;13.17;4.43;;;;;;;;;;5029269;28;20221;-72
2022/10/07 00:24:58;;;;;;;14.03;4.83;;;;;;;;;;5007688;28;20192;-72
2022/10/07 00:27:23;;;;;;;15.00;4.13;;;;;;;;;;5020346;28;20173;-72
2022/10/07 00:29:49;;;;;;;9.77;4.07;;;;;;;;;;5016379;28;20166;-72
2022/10/07 00:32:14;;;;;;;9.10;4.00;;;;;;;;;;5035687;28;20262;-72
2022/10/07 00:34:39;;;;;;;9.43;3.60;;;;;;;;;;5017911;28;20171;-73
2022/10/07 00:37:04;;;;;;;5.33;3.93;;;;;;;;;;5035102;28;20269;-72
2022/10/07 00:39:29;;;;;;;7.97;3.63;;;;;;;;;;5033101;28;20603;-73
2022/10/07 00:41:55;;;;;;;15.80;4.20;;;;;;;;;;5019208;28;20233;-72
2022/10/07 00:44:35;;;;;;;10.00;4.30;;;;;;;;;;5037001;28;20198;-72
2022/10/07 00:47:09;;;;;;;11.37;4.20;;;;;;;;;;5033872;28;20298;-73
2022/10/07 00:49:40;;;;;;;10.80;4.90;;;;;;;;;;5036693;28;20252;-73
2022/10/07 00:52:05;;;;;;;11.77;5.10;;;;;;;;;;5036975;28;20747;-73
2022/10/07 00:54:30;;;;;;;13.63;5.70;;;;;;;;;;5036783;28;20269;-72
2022/10/07 00:56:58;;;;;;;13.83;4.10;;;;;;;;;;5035171;28;20178;-70
2022/10/07 00:59:23;;;;;;;11.07;5.50;;;;;;;;;;5045120;28;20599;-71
2022/10/07 01:01:48;;;;;;;8.40;4.67;;;;;;;;;;5037454;28;20202;-71
2022/10/07 01:04:14;;;;;;;13.00;4.77;;;;;;;;;;5035013;28;20194;-71
2022/10/07 01:06:39;;;;;;;14.03;4.47;;;;;;;;;;5036676;28;20312;-71
2022/10/07 01:09:06;;;;;;;8.97;3.80;;;;;;;;;;5037183;28;20586;-72
2022/10/07 01:11:37;;;;;;;9.07;4.50;;;;;;;;;;5029635;28;20260;-71
2022/10/07 01:14:02;;;;;;;11.50;4.40;;;;;;;;;;5030018;28;20206;-72
2022/10/07 01:16:30;;;;;;;12.97;4.33;;;;;;;;;;5036787;28;20668;-72
2022/10/07 01:19:02;;;;;;;9.37;4.33;;;;;;;;;;5033907;28;20206;-72
2022/10/07 01:21:36;;;;;;;9.97;4.53;;;;;;;;;;5036133;28;20224;-72
2022/10/07 01:24:04;;;;;;;16.20;5.17;;;;;;;;;;5024931;28;20212;-73
2022/10/07 01:26:36;;;;;;;14.03;4.67;;;;;;;;;;5036541;28;20178;-73
2022/10/07 01:29:12;;;;;;;12.10;4.73;;;;;;;;;;5035742;28;20186;-73
2022/10/07 01:31:41;;;;;;;13.27;4.90;;;;;;;;;;5035829;28;20225;-72
2022/10/07 01:34:07;;;;;;;12.13;4.40;;;;;;;;;;5035682;28;20244;-71
2022/10/07 01:36:35;;;;;;;7.47;4.30;;;;;;;;;;5033776;28;20190;-71
2022/10/07 01:39:03;;;;;;;8.80;4.63;;;;;;;;;;5033101;28;20674;-73
2022/10/07 01:41:29;;;;;;;11.77;4.97;;;;;;;;;;5030752;28;20225;-73
2022/10/07 01:43:55;;;;;;;11.70;4.33;;;;;;;;;;5032407;28;20429;-73
2022/10/07 01:46:22;;;;;;;10.13;5.33;;;;;;;;;;5032955;28;20222;-73
2022/10/07 01:48:47;;;;;;;12.30;4.80;;;;;;;;;;5012653;28;20181;-72
2022/10/07 01:51:13;;;;;;;10.73;5.40;;;;;;;;;;5029620;28;20170;-70
2022/10/07 01:53:48;;;;;;;12.97;5.23;;;;;;;;;;5032730;28;20198;-72
2022/10/07 01:56:32;;;;;;;14.27;6.27;;;;;;;;;;5030886;28;20170;-72
2022/10/07 01:59:06;;;;;;;16.60;7.33;;;;;;;;;;5031918;28;20178;-73
2022/10/07 02:01:31;;;;;;;13.03;5.93;;;;;;;;;;5031893;28;20210;-73
2022/10/07 02:04:12;;;;;;;13.97;5.30;;;;;;;;;;5032457;28;20259;-72
2022/10/07 02:06:38;;;;;;;10.20;4.77;;;;;;;;;;5013127;28;20182;-72
2022/10/07 02:09:06;;;;;;;10.90;6.50;;;;;;;;;;5028328;28;20171;-72
2022/10/07 02:11:35;;;;;;;16.57;5.43;;;;;;;;;;5007208;28;20268;-72
2022/10/07 02:14:07;;;;;;;12.33;5.67;;;;;;;;;;5023338;28;20229;-72
2022/10/07 02:16:55;;;;;;;11.90;5.10;;;;;;;;;;5032930;28;20282;-72
2022/10/07 02:19:22;;;;;;;14.27;6.70;;;;;;;;;;5026186;28;20652;-72
2022/10/07 02:21:48;;;;;;;13.60;5.90;;;;;;;;;;5033025;28;20194;-72
2022/10/07 02:24:14;;;;;;;15.03;4.90;;;;;;;;;;5013295;28;20214;-72
2022/10/07 02:26:39;;;;;;;10.90;4.77;;;;;;;;;;5032172;28;20184;-71
2022/10/07 02:29:06;;;;;;;12.80;4.93;;;;;;;;;;5031540;28;20178;-70
2022/10/07 02:31:32;;;;;;;13.57;5.57;;;;;;;;;;5023958;28;20206;-72
2022/10/07 02:33:59;;;;;;;9.17;4.80;;;;;;;;;;5029340;28;20267;-72
2022/10/07 02:36:26;;;;;;;18.13;5.23;;;;;;;;;;5031061;28;20267;-72
2022/10/07 02:38:51;;;;;;;17.53;4.93;;;;;;;;;;5028026;28;20186;-73
2022/10/07 02:41:30;;;;;;;9.30;5.03;;;;;;;;;;5023971;28;20549;-72
2022/10/07 02:43:57;;;;;;;11.77;5.73;;;;;;;;;;5007965;28;20198;-72
2022/10/07 02:46:25;;;;;;;14.03;5.40;;;;;;;;;;5031179;28;20205;-72
2022/10/07 02:49:04;;;;;;;12.93;5.83;;;;;;;;;;5031061;28;20542;-72
2022/10/07 02:51:38;;;;;;;10.63;6.23;;;;;;;;;;5030399;28;20182;-72
2022/10/07 02:54:03;;;;;;;12.57;5.73;;;;;;;;;;5021460;28;20340;-70
2022/10/07 02:56:31;;;;;;;10.67;5.27;;;;;;;;;;5028429;28;20719;-72
2022/10/07 02:58:58;;;;;;;16.47;6.27;;;;;;;;;;5030550;28;20216;-72
2022/10/07 03:01:25;;;;;;;11.33;5.00;;;;;;;;;;5027114;28;20189;-73
2022/10/07 03:03:50;;;;;;;9.70;5.33;;;;;;;;;;5021994;28;20222;-73
2022/10/07 03:06:18;;;;;;;10.27;5.57;;;;;;;;;;5027901;28;20197;-73
2022/10/07 03:08:45;;;;;;;19.20;6.03;;;;;;;;;;5013554;28;20171;-70
2022/10/07 03:11:10;;;;;;;11.30;5.00;;;;;;;;;;5029677;28;20548;-70
2022/10/07 03:13:35;;;;;;;10.97;5.57;;;;;;;;;;5006948;28;20209;-73
2022/10/07 03:16:03;;;;;;;9.23;4.77;;;;;;;;;;5019312;28;20190;-70
2022/10/07 03:18:28;;;;;;;17.63;5.57;;;;;;;;;;5024789;28;20304;-72
2022/10/07 03:20:54;;;;;;;18.00;5.87;;;;;;;;;;5027111;28;20254;-73
2022/10/07 03:23:20;;;;;;;11.53;5.80;;;;;;;;;;5029971;28;20292;-71
2022/10/07 03:25:50;;;;;;;10.53;5.03;;;;;;;;;;5031068;28;20235;-71
2022/10/07 03:28:16;;;;;;;14.00;5.30;;;;;;;;;;5031203;28;20186;-71
2022/10/07 03:30:41;;;;;;;15.73;5.50;;;;;;;;;;5030165;28;20171;-71
2022/10/07 03:33:07;;;;;;;19.27;7.13;;;;;;;;;;5030969;28;20198;-71
2022/10/07 03:35:32;;;;;;;14.30;5.23;;;;;;;;;;5025397;28;20179;-71
2022/10/07 03:37:57;;;;;;;18.90;6.47;;;;;;;;;;5030117;28;20567;-71
2022/10/07 03:40:22;;;;;;;15.10;5.53;;;;;;;;;;5004355;28;20182;-73
2022/10/07 03:42:49;;;;;;;11.70;5.60;;;;;;;;;;5027835;28;20316;-71
2022/10/07 03:45:14;;;;;;;12.60;5.40;;;;;;;;;;5030005;28;20174;-71
2022/10/07 03:47:39;;;;;;;14.33;5.73;;;;;;;;;;5030207;28;20253;-71
2022/10/07 03:50:05;;;;;;;9.50;5.13;;;;;;;;;;5013500;28;20178;-71
2022/10/07 03:52:30;;;;;;;12.07;5.10;;;;;;;;;;5029586;28;20634;-71
2022/10/07 03:54:55;;;;;;;12.30;5.10;;;;;;;;;;5025641;28;20188;-71
2022/10/07 04:00:05;;;;;;;9.73;4.97;;;;;;;;;;5031107;28;20184;-71
2022/10/07 04:02:30;;;;;;;11.33;5.77;;;;;;;;;;5029915;28;20222;-71
2022/10/07 04:04:55;;;;;;;14.10;5.70;;;;;;;;;;5028314;28;20266;-71
2022/10/07 04:07:21;;;;;;;8.83;5.33;;;;;;;;;;5026620;28;20179;-72
2022/10/07 04:09:46;;;;;;;11.73;4.77;;;;;;;;;;5029668;28;20663;-71
2022/10/07 04:12:12;;;;;;;11.77;4.90;;;;;;;;;;5030168;28;20236;-71
2022/10/07 04:14:38;;;;;;;13.40;5.23;;;;;;;;;;5028560;28;20186;-71
2022/10/07 04:17:03;;;;;;;14.73;5.10;;;;;;;;;;5029681;28;20178;-71
2022/10/07 04:19:28;;;;;;;14.00;5.60;;;;;;;;;;5026696;28;20236;-71
2022/10/07 04:21:54;;;;;;;13.93;5.07;;;;;;;;;;5012366;28;20694;-71
2022/10/07 04:24:20;;;;;;;15.93;5.40;;;;;;;;;;5010941;28;20209;-71
2022/10/07 04:26:45;;;;;;;13.90;5.83;;;;;;;;;;5028240;28;20501;-71
2022/10/07 04:29:10;;;;;;;12.10;4.23;;;;;;;;;;5030506;28;20202;-71
2022/10/07 04:31:36;;;;;;;12.97;5.00;;;;;;;;;;5028669;28;20564;-71
2022/10/07 04:34:01;;;;;;;15.33;6.40;;;;;;;;;;5030356;28;20201;-74
2022/10/07 04:36:26;;;;;;;15.40;4.90;;;;;;;;;;5028826;28;20277;-71
2022/10/07 04:38:51;;;;;;;15.40;5.07;;;;;;;;;;5024738;28;20185;-71
2022/10/07 04:41:17;;;;;;;9.57;5.43;;;;;;;;;;5028871;28;20257;-71
2022/10/07 04:43:42;;;;;;;16.50;6.33;;;;;;;;;;5016088;28;20278;-71
2022/10/07 04:46:12;;;;;;;11.30;5.00;;;;;;;;;;5028043;28;20265;-71
2022/10/07 04:48:37;;;;;;;20.57;6.00;;;;;;;;;;5022703;28;20189;-71
2022/10/07 04:51:04;;;;;;;11.50;5.53;;;;;;;;;;5028070;28;20592;-71
2022/10/07 04:53:30;;;;;;;22.30;5.63;;;;;;;;;;5029522;28;20206;-71
2022/10/07 04:55:56;;;;;;;11.60;5.07;;;;;;;;;;5028027;28;20560;-71
2022/10/07 04:58:21;;;;;;;15.17;5.17;;;;;;;;;;5023208;28;20175;-71
2022/10/07 05:00:48;;;;;;;12.33;5.00;;;;;;;;;;5028135;28;20182;-71
2022/10/07 05:03:13;;;;;;;14.30;4.90;;;;;;;;;;5029488;28;20772;-71
2022/10/07 05:05:40;;;;;;;11.67;4.90;;;;;;;;;;5029507;28;20186;-71
2022/10/07 05:08:06;;;;;;;11.70;4.70;;;;;;;;;;5009755;28;20232;-71
2022/10/07 05:10:33;;;;;;;15.27;5.33;;;;;;;;;;5012258;28;20191;-71
2022/10/07 05:12:58;;;;;;;18.73;5.90;;;;;;;;;;5022886;28;20225;-71
2022/10/07 05:15:24;;;;;;;11.80;4.57;;;;;;;;;;5031136;28;20661;-71
2022/10/07 05:17:49;;;;;;;9.90;4.20;;;;;;;;;;5025087;28;20222;-73
2022/10/07 05:20:14;;;;;;;12.37;3.97;;;;;;;;;;5030546;28;20182;-71
2022/10/07 05:22:39;;;;;;;13.50;4.37;;;;;;;;;;5031917;28;20206;-71
2022/10/07 05:25:05;;;;;;;17.43;7.13;;;;;;;;;;5016478;28;20269;-71
2022/10/07 05:27:31;;;;;;;12.10;4.13;;;;;;;;;;5026990;28;20556;-71
2022/10/07 05:29:56;;;;;;;16.43;3.90;;;;;;;;;;5030625;28;20181;-71
2022/10/07 05:32:21;;;;;;;13.03;5.03;;;;;;;;;;5024103;28;20209;-71
2022/10/07 05:34:46;;;;;;;10.53;3.47;;;;;;;;;;5025288;28;20178;-71
2022/10/07 05:37:14;;;;;;;11.40;4.80;;;;;;;;;;5028726;28;20201;-71
2022/10/07 05:39:39;;;;;;;9.00;3.70;;;;;;;;;;5029402;28;20549;-71
2022/10/07 05:42:04;;;;;;;12.40;4.07;;;;;;;;;;5018047;28;20198;-71
2022/10/07 05:44:32;;;;;;;15.27;4.97;;;;;;;;;;5026794;28;20174;-73
2022/10/07 05:46:57;;;;;;;7.37;4.10;;;;;;;;;;5030335;28;20178;-71
2022/10/07 05:49:23;;;;;;;6.50;3.27;;;;;;;;;;5029993;28;20179;-71
2022/10/07 05:51:48;;;;;;;11.50;4.03;;;;;;;;;;5027339;28;20190;-71
2022/10/07 05:54:14;;;;;;;13.80;4.87;;;;;;;;;;5032321;28;20301;-72
2022/10/07 05:56:39;;;;;;;19.20;4.30;;;;;;;;;;5030727;28;20269;-72
2022/10/07 05:59:04;;;;;;;17.50;4.00;;;;;;;;;;5032560;28;20236;-72
2022/10/07 06:01:29;;;;;;;9.90;3.53;;;;;;;;;;5026158;28;20252;-70
2022/10/07 06:03:58;;;;;;;8.17;3.57;;;;;;;;;;5040950;28;20284;-70
2022/10/07 06:06:23;;;;;;;9.57;3.90;;;;;;;;;;5037549;28;20244;-73
2022/10/07 06:08:49;;;;;;;6.17;2.87;;;;;;;;;;5015843;28;20174;-72
2022/10/07 06:14:00;;;;;;;12.20;4.20;;;;;;;;;;5027814;28;20569;-72
2022/10/07 06:16:25;;;;;;;11.70;3.27;;;;;;;;;;5033065;28;20182;-72
2022/10/07 06:18:51;;;;;;;10.70;3.10;;;;;;;;;;5032767;28;20179;-72
2022/10/07 06:21:22;;;;;;;11.43;2.93;;;;;;;;;;5022610;28;20179;-72
2022/10/07 06:23:51;;;;;;;13.13;3.93;;;;;;;;;;5007910;28;20206;-72
2022/10/07 06:26:16;;;;;;;9.70;3.50;;;;;;;;;;5032472;28;20575;-71
2022/10/07 06:28:41;;;;;;;9.47;3.20;;;;;;;;;;5031979;28;20249;-71
2022/10/07 06:31:11;;;;;;;9.77;3.53;;;;;;;;;;5025736;28;20308;-71
2022/10/07 06:33:37;;;;;;;11.10;3.83;;;;;;;;;;5032787;28;20273;-71
2022/10/07 06:36:03;;;;;;;9.70;3.20;;;;;;;;;;5032146;28;20334;-70
2022/10/07 06:38:28;;;;;;;11.07;3.80;;;;;;;;;;5030277;28;20184;-70
2022/10/07 06:40:57;;;;;;;9.77;3.47;;;;;;;;;;5025893;28;20552;-71
2022/10/07 06:43:23;;;;;;;13.43;3.83;;;;;;;;;;5029720;28;20202;-71
2022/10/07 06:45:48;;;;;;;13.43;3.33;;;;;;;;;;5025597;28;20265;-71
2022/10/07 06:48:13;;;;;;;12.97;3.00;;;;;;;;;;5010301;28;20197;-71
2022/10/07 06:50:38;;;;;;;14.47;3.20;;;;;;;;;;5024211;28;20767;-71
2022/10/07 06:53:03;;;;;;;14.07;3.53;;;;;;;;;;5014107;28;20241;-71
2022/10/07 06:55:29;;;;;;;10.17;3.03;;;;;;;;;;5013634;28;20179;-71
2022/10/07 06:57:54;;;;;;;6.63;2.43;;;;;;;;;;5019845;28;20664;-71
2022/10/07 07:00:19;;;;;;;10.70;2.83;;;;;;;;;;5006118;28;20191;-71
2022/10/07 07:02:44;;;;;;;9.50;2.90;;;;;;;;;;5012885;28;20206;-71
2022/10/07 07:05:12;;;;;;;8.67;3.60;;;;;;;;;;5028222;28;20180;-71
2022/10/07 07:07:37;;;;;;;9.40;4.00;;;;;;;;;;5010401;28;20183;-71
2022/10/07 07:10:02;;;;;;;9.13;2.93;;;;;;;;;;5029427;28;20796;-71
2022/10/07 07:12:28;;;;;;;9.80;3.40;;;;;;;;;;5026460;28;20209;-71
2022/10/07 07:14:53;;;;;;;10.90;3.58;;;;;;;;;;5019769;28;20273;-71
2022/10/07 07:17:18;;;;;;;12.63;3.30;;;;;;;;;;5024036;28;20260;-71
2022/10/07 07:19:43;;;;;;;12.37;3.60;;;;;;;;;;5008833;28;20265;-71
2022/10/07 07:22:09;;;;;;;13.65;3.10;;;;;;;;;;5026407;28;20568;-71
2022/10/07 07:24:34;;;;;;;7.35;3.03;;;;;;;;;;5025318;28;20203;-71
2022/10/07 07:26:59;;;;;;;12.75;4.38;;;;;;;;;;5018639;28;20179;-71
2022/10/07 07:29:25;;;;;;;11.35;3.47;;;;;;;;;;5031973;28;20590;-71
2022/10/07 07:31:50;;;;;;;12.23;3.85;;;;;;;;;;5024671;28;20213;-71
2022/10/07 07:34:15;;;;;;;12.18;3.97;;;;;;;;;;5021084;28;20199;-71
2022/10/07 07:36:46;;;;;;;13.77;3.97;;;;;;;;;;5019314;28;20209;-71
2022/10/07 07:39:12;;;;;;;10.10;3.25;;;;;;;;;;5017426;28;20183;-71
2022/10/07 07:41:40;;;;;;;9.82;2.70;;;;;;;;;;5029092;28;20314;-71
2022/10/07 07:44:07;;;;;;;8.95;2.42;;;;;;;;;;5026834;28;20190;-71
2022/10/07 07:46:37;;;;;;;7.78;2.70;;;;;;;;;;5023112;28;20174;-71
2022/10/07 07:49:03;;;;;;;10.82;2.78;;;;;;;;;;5024184;28;20173;-72
2022/10/07 07:51:28;;;;;;;9.02;2.60;;;;;;;;;;5029044;28;20185;-71
2022/10/07 07:53:53;;;;;;;10.05;3.33;;;;;;;;;;5022866;28;20194;-71
2022/10/07 07:56:19;;;;;;;8.68;2.78;;;;;;;;;;5006688;28;20324;-72
2022/10/07 07:58:44;;;;;;;9.68;2.28;;;;;;;;;;5027719;28;20205;-70
2022/10/07 08:01:12;;;;;;;13.10;2.85;;;;;;;;;;5002942;28;20182;-72
2022/10/07 08:03:39;;;;;;;8.25;2.30;;;;;;;;;;5024182;28;20210;-72
2022/10/07 08:06:05;;;;;;;8.02;2.63;;;;;;;;;;5018012;28;20313;-72
2022/10/07 08:08:30;;;;;;;6.88;2.35;;;;;;;;;;5022947;28;20182;-72
2022/10/07 08:10:56;;;;;;;10.30;2.83;;;;;;;;;;5019869;28;20178;-70
2022/10/07 08:13:21;;;;;;;6.45;2.33;;;;;;;;;;5022490;28;20245;-72
2022/10/07 08:15:46;;;;;;;8.80;2.80;;;;;;;;;;5028076;28;20182;-72
2022/10/07 08:18:11;;;;;;;7.40;2.92;;;;;;;;;;5019722;28;20182;-72
2022/10/07 08:20:37;;;;;;;11.48;2.60;;;;;;;;;;5022285;28;20179;-72
2022/10/07 08:23:05;;;;;;;13.10;2.92;;;;;;;;;;5004879;28;20709;-72
2022/10/07 08:25:30;;;;;;;7.00;2.58;;;;;;;;;;5025967;28;20196;-72
2022/10/07 08:27:56;;;;;;;9.15;2.35;;;;;;;;;;5022867;28;20277;-71
2022/10/07 08:30:22;;;;;;;12.25;2.83;;;;;;;;;;5025150;28;20170;-69
2022/10/07 08:32:48;;;;;;;8.23;3.45;;;;;;;;;;5028367;28;20198;-70
2022/10/07 08:35:13;;;;;;;8.00;2.75;;;;;;;;;;5010166;28;20231;-72
2022/10/07 08:37:38;;;;;;;9.70;2.22;;;;;;;;;;5024300;28;20552;-72
2022/10/07 08:40:04;;;;;;;10.23;2.72;;;;;;;;;;5024682;28;20217;-71
2022/10/07 08:42:32;;;;;;;13.70;4.00;;;;;;;;;;5017232;28;20210;-70
2022/10/07 08:44:58;;;;;;;13.48;4.50;;;;;;;;;;5016803;28;20166;-70
2022/10/07 08:47:50;;;;;;;4.68;2.13;;;;;;;;;;5018666;28;20185;-74
2022/10/07 08:50:24;;;;;;;9.32;2.78;;;;;;;;;;5016737;28;20186;-70
2022/10/07 08:52:49;;;;;;;10.00;2.58;;;;;;;;;;5024885;28;20721;-70
2022/10/07 08:55:35;;;;;;;10.18;3.42;;;;;;;;;;5024148;28;20183;-72
2022/10/07 08:58:04;;;;;;;14.02;3.55;;;;;;;;;;5024142;28;20178;-70
2022/10/07 09:00:39;;;;;;;8.77;2.95;;;;;;;;;;5033064;28;20574;-70
2022/10/07 09:03:23;;;;;;;7.53;2.70;;;;;;;;;;5026137;28;20202;-70
2022/10/07 09:05:49;;;;;;;11.82;2.88;;;;;;;;;;5018838;28;20186;-70
2022/10/07 09:08:19;;;;;;;9.20;2.28;;;;;;;;;;5009870;28;20193;-70
2022/10/07 09:10:49;;;;;;;6.82;2.13;;;;;;;;;;5005003;28;20686;-70
2022/10/07 09:13:20;;;;;;;10.88;2.72;;;;;;;;;;5032243;28;20198;-72
2022/10/07 09:15:50;;;;;;;6.40;2.40;;;;;;;;;;5024272;28;20569;-70
2022/10/07 09:18:22;;;;;;;6.70;2.78;;;;;;;;;;5016520;28;20251;-72
2022/10/07 09:20:52;;;;;;;9.73;2.92;;;;;;;;;;5028417;28;20174;-72
2022/10/07 09:23:19;;;;;;;10.30;3.47;;;;;;;;;;5023124;28;20281;-73
2022/10/07 09:25:44;;;;;;;6.88;2.00;;;;;;;;;;5015159;28;20186;-71
2022/10/07 09:28:13;;;;;;;10.30;2.85;;;;;;;;;;5021969;28;20178;-72
2022/10/07 09:30:39;;;;;;;14.27;3.55;;;;;;;;;;5013315;28;20320;-73
2022/10/07 09:33:07;;;;;;;10.70;4.07;;;;;;;;;;5030515;28;20277;-70
2022/10/07 09:35:33;;;;;;;11.20;3.35;;;;;;;;;;5021354;28;20723;-73
2022/10/07 09:38:02;;;;;;;8.07;2.88;;;;;;;;;;5005725;28;20190;-71
2022/10/07 09:41:13;;;;;;;7.63;2.65;;;;;;;;;;5020553;28;20186;-72
2022/10/07 09:43:22;;;;;;;9.45;3.38;;;;;;;;;;5027795;28;20222;-72
2022/10/07 09:45:47;;;;;;;10.10;2.10;;;;;;;;;;5024509;28;20178;-72
2022/10/07 09:48:33;;;;;;;10.27;3.45;;;;;;;;;;5024408;28;20171;-72
2022/10/07 09:51:11;;;;;;;7.05;2.40;;;;;;;;;;5021216;28;20179;-71
2022/10/07 09:53:52;;;;;;;10.52;2.92;;;;;;;;;;5030660;28;20202;-71
2022/10/07 09:56:29;;;;;;;10.48;3.33;;;;;;;;;;5003906;28;20178;-71
2022/10/07 09:59:09;;;;;;;14.48;3.47;;;;;;;;;;5030204;28;20182;-72
2022/10/07 10:01:34;;;;;;;7.68;2.50;;;;;;;;;;5018112;28;20564;-71
2022/10/07 10:03:59;;;;;;;8.70;2.53;;;;;;;;;;5028289;28;20190;-71
2022/10/07 10:06:25;;;;;;;9.57;2.85;;;;;;;;;;5017640;28;20182;-71
2022/10/07 10:08:54;;;;;;;9.75;3.22;;;;;;;;;;5024791;28;20170;-71
2022/10/07 10:11:24;;;;;;;7.22;2.45;;;;;;;;;;5027487;28;20179;-71
2022/10/07 10:13:50;;;;;;;13.73;3.40;;;;;;;;;;5005778;28;20206;-72
2022/10/07 10:16:39;;;;;;;8.48;2.33;;;;;;;;;;5006122;28;20174;-72
2022/10/07 10:19:18;;;;;;;7.63;2.28;;;;;;;;;;5023447;28;20257;-71
2022/10/07 10:21:49;;;;;;;9.63;2.75;;;;;;;;;;5029273;28;20212;-71
2022/10/07 10:24:14;;;;;;;12.10;2.83;;;;;;;;;;5026853;28;20202;-72
2022/10/07 10:26:58;;;;;;;7.72;2.40;;;;;;;;;;5026758;28;20672;-71
2022/10/07 10:29:33;;;;;;;10.23;2.70;;;;;;;;;;5023342;28;20187;-72
2022/10/07 10:32:14;;;;;;;6.93;1.92;;;;;;;;;;5027790;28;20181;-71
2022/10/07 10:34:53;;;;;;;8.88;2.30;;;;;;;;;;5022888;28;20668;-71
2022/10/07 10:37:19;;;;;;;9.18;1.85;;;;;;;;;;5015365;28;20174;-71
2022/10/07 10:39:50;;;;;;;8.50;2.60;;;;;;;;;;5012604;28;20737;-71
2022/10/07 10:42:19;;;;;;;8.23;2.35;;;;;;;;;;5024421;28;20202;-72
2022/10/07 10:44:45;;;;;;;9.20;2.67;;;;;;;;;;5020497;28;20648;-71
2022/10/07 10:47:29;;;;;;;8.27;2.20;;;;;;;;;;5017030;28;20183;-71
2022/10/07 10:50:03;;;;;;;7.43;2.38;;;;;;;;;;5021819;28;20174;-71
2022/10/07 10:52:34;;;;;;;8.40;1.88;;;;;;;;;;5024063;28;20199;-71
2022/10/07 10:55:02;;;;;;;13.60;3.22;;;;;;;;;;5008515;28;20196;-71
2022/10/07 10:57:46;;;;;;;6.82;1.38;;;;;;;;;;5020148;28;20201;-72
2022/10/07 11:00:16;;;;;;;7.78;2.13;;;;;;;;;;5017890;28;20174;-71
2022/10/07 11:02:53;;;;;;;7.75;2.50;;;;;;;;;;5027145;28;20209;-71
2022/10/07 11:05:23;;;;;;;5.28;1.52;;;;;;;;;;5019325;28;20174;-71
2022/10/07 11:08:06;;;;;;;7.03;1.67;;;;;;;;;;5024332;28;20174;-71
2022/10/07 11:10:39;;;;;;;6.05;1.73;;;;;;;;;;5005887;28;20175;-71
2022/10/07 11:13:26;;;;;;;7.15;1.48;;;;;;;;;;5021271;28;20194;-71
2022/10/07 11:15:55;;;;;;;4.50;1.67;;;;;;;;;;5023881;28;20231;-71
2022/10/07 11:18:44;;;;;;;6.40;1.42;;;;;;;;;;5028121;28;20181;-72
2022/10/07 11:21:11;;;;;;;7.70;1.77;;;;;;;;;;5012556;28;20175;-71
2022/10/07 11:23:40;;;;;;;7.28;1.65;;;;;;;;;;5021416;28;21684;-71
2022/10/07 11:26:24;;;;;;;6.28;1.52;;;;;;;;;;5023654;28;20173;-71
2022/10/07 11:28:50;;;;;;;3.92;1.20;;;;;;;;;;5024406;28;20213;-71
2022/10/07 11:31:16;;;;;;;5.85;1.70;;;;;;;;;;5014472;28;20175;-71
2022/10/07 11:33:47;;;;;;;4.07;1.15;;;;;;;;;;5011920;28;20202;-71
2022/10/07 11:36:14;;;;;;;7.47;1.77;;;;;;;;;;5020390;28;20186;-71
2022/10/07 11:38:40;;;;;;;6.45;1.88;;;;;;;;;;5025394;28;20178;-71
2022/10/07 11:41:19;;;;;;;6.90;2.50;;;;;;;;;;5030194;28;20682;-71
2022/10/07 11:43:55;;;;;;;6.20;1.83;;;;;;;;;;5030255;28;20250;-71
2022/10/07 11:46:20;;;;;;;6.97;1.92;;;;;;;;;;5025687;28;20243;-71
2022/10/07 11:48:45;;;;;;;8.47;1.80;;;;;;;;;;5020799;28;20175;-71
2022/10/07 11:51:18;;;;;;;6.35;1.50;;;;;;;;;;5026696;28;20431;-71
2022/10/07 11:53:43;;;;;;;6.88;1.95;;;;;;;;;;5019961;28;20198;-71
2022/10/07 11:56:15;;;;;;;5.80;1.42;;;;;;;;;;5008734;28;20182;-72
2022/10/07 11:58:43;;;;;;;7.13;1.70;;;;;;;;;;5026084;28;20170;-71
2022/10/07 12:01:29;;;;;;;8.75;2.10;;;;;;;;;;5024613;28;20206;-71
2022/10/07 12:04:01;;;;;;;4.53;1.77;;;;;;;;;;5017255;28;20806;-72
2022/10/07 12:06:26;;;;;;;4.53;1.45;;;;;;;;;;5024580;28;20182;-72
2022/10/07 12:08:52;;;;;;;4.95;1.42;;;;;;;;;;5026900;28;20174;-72
2022/10/07 12:11:17;;;;;;;3.72;1.13;;;;;;;;;;5022726;28;20201;-72
2022/10/07 12:13:47;;;;;;;6.80;1.20;;;;;;;;;;5022797;28;20687;-72
2022/10/07 12:16:30;;;;;;;4.03;1.75;;;;;;;;;;5017698;28;20428;-72
2022/10/07 12:19:05;;;;;;;7.95;1.75;;;;;;;;;;5023718;28;20248;-72
2022/10/07 12:21:50;;;;;;;4.35;1.40;;;;;;;;;;5009053;28;20186;-72
2022/10/07 12:24:15;;;;;;;7.60;2.08;;;;;;;;;;5001843;28;20237;-71
2022/10/07 12:26:42;;;;;;;4.68;1.38;;;;;;;;;;5025549;28;20209;-71
2022/10/07 12:29:17;;;;;;;8.60;1.75;;;;;;;;;;5026626;28;20182;-71
2022/10/07 12:31:45;;;;;;;9.30;2.20;;;;;;;;;;5016641;28;20293;-71
2022/10/07 12:34:10;;;;;;;6.15;1.30;;;;;;;;;;5024448;28;20191;-72
2022/10/07 12:36:38;;;;;;;6.63;1.42;;;;;;;;;;5025329;28;20554;-71
2022/10/07 12:39:08;;;;;;;6.65;1.63;;;;;;;;;;5021379;28;20290;-71
2022/10/07 12:41:34;;;;;;;5.82;1.75;;;;;;;;;;5023231;28;20170;-71
2022/10/07 12:44:18;;;;;;;5.35;1.52;;;;;;;;;;5011412;28;20218;-71
2022/10/07 12:47:01;;;;;;;4.22;1.25;;;;;;;;;;5024277;28;20663;-71
2022/10/07 12:49:30;;;;;;;7.90;1.42;;;;;;;;;;5021346;28;20624;-71
2022/10/07 12:51:57;;;;;;;6.80;2.38;;;;;;;;;;5022404;28;20624;-71
2022/10/07 12:54:27;;;;;;;6.95;2.85;;;;;;;;;;5026618;28;20205;-71
2022/10/07 12:56:52;;;;;;;4.50;1.15;;;;;;;;;;5021061;28;20183;-72
2022/10/07 13:02:24;;;;;;;9.30;2.10;;;;;;;;;;5027860;28;20275;-71
2022/10/07 13:04:50;;;;;;;3.50;0.98;;;;;;;;;;5018693;28;20183;-71
2022/10/07 13:07:38;;;;;;;3.20;1.35;;;;;;;;;;5012342;28;20582;-71
2022/10/07 13:10:22;;;;;;;7.43;1.75;;;;;;;;;;5007374;28;20568;-72
2022/10/07 13:13:13;;;;;;;7.38;1.58;;;;;;;;;;5025001;28;20579;-71
2022/10/07 13:15:48;;;;;;;6.65;1.63;;;;;;;;;;4984413;28;20194;-71
2022/10/07 13:18:34;;;;;;;4.03;1.30;;;;;;;;;;5016547;28;20189;-72
2022/10/07 13:21:18;;;;;;;3.70;1.15;;;;;;;;;;5021817;28;20197;-72
2022/10/07 13:23:53;;;;;;;4.50;1.65;;;;;;;;;;5018686;28;20210;-72
2022/10/07 13:26:21;;;;;;;6.00;1.33;;;;;;;;;;5026280;28;20273;-71
2022/10/07 13:28:50;;;;;;;7.82;1.75;;;;;;;;;;5020123;28;20664;-71
2022/10/07 13:31:17;;;;;;;5.10;1.45;;;;;;;;;;5023288;28;20548;-71
2022/10/07 13:33:43;;;;;;;8.38;1.42;;;;;;;;;;5011157;28;20194;-71
2022/10/07 13:36:22;;;;;;;6.20;1.60;;;;;;;;;;5021862;28;20174;-71
2022/10/07 13:38:49;;;;;;;7.60;2.17;;;;;;;;;;5028452;28;20663;-71
2022/10/07 13:41:27;;;;;;;9.40;2.30;;;;;;;;;;5005322;28;20182;-71
2022/10/07 13:44:01;;;;;;;7.68;1.90;;;;;;;;;;5024732;28;20290;-71
2022/10/07 13:46:27;;;;;;;7.15;1.50;;;;;;;;;;5025219;28;20233;-71
2022/10/07 13:48:55;;;;;;;8.07;2.03;;;;;;;;;;5028296;28;20182;-71
2022/10/07 13:51:26;;;;;;;6.20;1.70;;;;;;;;;;5019647;28;20189;-71
2022/10/07 13:53:53;;;;;;;9.73;1.95;;;;;;;;;;5014550;28;20222;-71
2022/10/07 13:56:22;;;;;;;10.27;3.28;;;;;;;;;;5010921;28;20198;-71
2022/10/07 13:58:47;;;;;;;7.70;1.75;;;;;;;;;;5010786;28;20185;-71
2022/10/07 14:01:13;;;;;;;3.90;1.80;;;;;;;;;;5022615;28;20261;-71
2022/10/07 14:03:57;;;;;;;4.97;1.58;;;;;;;;;;5014181;28;20687;-71
2022/10/07 14:06:34;;;;;;;7.40;1.60;;;;;;;;;;5015299;28;20174;-71
2022/10/07 14:09:00;;;;;;;6.10;1.55;;;;;;;;;;5020178;28;20664;-71
2022/10/07 14:11:25;;;;;;;7.13;2.17;;;;;;;;;;5029640;28;20261;-71
2022/10/07 14:13:50;;;;;;;11.20;2.38;;;;;;;;;;5012703;28;20297;-71
2022/10/07 14:16:17;;;;;;;3.63;1.70;;;;;;;;;;5025270;28;20174;-71
2022/10/07 14:18:42;;;;;;;7.90;1.63;;;;;;;;;;5026283;28;20186;-71
2022/10/07 14:21:08;;;;;;;11.00;2.95;;;;;;;;;;5024436;28;20171;-71
2022/10/07 14:23:34;;;;;;;8.13;2.20;;;;;;;;;;5006008;28;20219;-72
2022/10/07 14:26:00;;;;;;;4.60;1.95;;;;;;;;;;5014487;28;20432;-71
2022/10/07 14:28:27;;;;;;;5.13;1.77;;;;;;;;;;5011995;28;20200;-71
2022/10/07 14:37:01;;;;;;;10.23;2.33;;;;;;;;;;5024548;28;20224;-71
2022/10/07 14:39:37;;;;;;;4.70;1.85;;;;;;;;;;5030879;28;20197;-71
2022/10/07 14:42:02;;;;;;;7.70;2.58;;;;;;;;;;5022668;28;20210;-71
2022/10/07 14:44:28;;;;;;;6.40;1.85;;;;;;;;;;5012552;28;20671;-71
2022/10/07 14:47:01;;;;;;;8.45;1.92;;;;;;;;;;5028593;28;20175;-71
2022/10/07 14:49:26;;;;;;;5.32;1.73;;;;;;;;;;5023552;28;20190;-71
2022/10/07 14:51:51;;;;;;;9.90;3.47;;;;;;;;;;5025424;28;20551;-71
2022/10/07 14:54:17;;;;;;;7.88;2.17;;;;;;;;;;5027394;28;20194;-72
2022/10/07 14:56:42;;;;;;;7.83;1.90;;;;;;;;;;5025309;28;20181;-72
2022/10/07 14:59:13;;;;;;;5.60;1.90;;;;;;;;;;5029671;28;20426;-71